Time;durP1;ratioP1;P1;durP2;ratioP2;P2;SDS_P1;SDS_P2;PMS_P1;PMS_P2;Temp;Humidity;BMP_temperature;BMP_pressure;BME280_temperature;BME280_humidity;BME280_pressure;Samples;Min_cycle;Max_cycle;Signal;HPM_P1;HPM_P2
2023/01/02 00:01:16;;;;;;;7.37;3.60;;;10.50;99.90;;;;;;5053964;28;20237;-52
2023/01/02 00:03:44;;;;;;;7.13;3.53;;;10.50;99.90;;;;;;5054159;28;20261;-51
2023/01/02 00:06:12;;;;;;;6.67;4.07;;;10.50;99.90;;;;;;5054200;28;20216;-52
2023/01/02 00:08:41;;;;;;;7.90;3.73;;;10.50;99.90;;;;;;5054051;28;20258;-52
2023/01/02 00:11:09;;;;;;;7.27;3.90;;;10.40;99.90;;;;;;5054018;28;20225;-52
2023/01/02 00:13:37;;;;;;;7.37;3.60;;;10.40;99.90;;;;;;5053760;28;20225;-50
2023/01/02 00:16:08;;;;;;;6.73;3.80;;;10.60;99.90;;;;;;5054178;28;20252;-51
2023/01/02 00:18:36;;;;;;;8.17;3.57;;;10.50;99.90;;;;;;5053972;28;20561;-51
2023/01/02 00:21:05;;;;;;;11.57;3.80;;;10.50;99.90;;;;;;5053489;28;20643;-51
2023/01/02 00:23:34;;;;;;;8.27;3.73;;;10.50;99.90;;;;;;5053851;28;20714;-53
2023/01/02 00:26:03;;;;;;;8.73;3.73;;;10.40;99.90;;;;;;5053963;28;20221;-54
2023/01/02 00:28:32;;;;;;;7.53;4.00;;;10.40;99.90;;;;;;5053464;28;20239;-53
2023/01/02 00:31:06;;;;;;;6.77;3.67;;;10.40;99.90;;;;;;5053402;28;20307;-53
2023/01/02 00:33:35;;;;;;;7.50;3.63;;;10.40;99.90;;;;;;5053399;28;20303;-51
2023/01/02 00:36:05;;;;;;;8.17;3.73;;;10.40;99.90;;;;;;5053767;28;20259;-53
2023/01/02 00:38:34;;;;;;;8.07;3.87;;;10.40;99.90;;;;;;5053470;28;20255;-53
2023/01/02 00:41:07;;;;;;;9.07;3.80;;;10.40;99.90;;;;;;5053552;28;20304;-52
2023/01/02 00:43:35;;;;;;;6.83;3.30;;;10.40;99.90;;;;;;5052953;28;20224;-50
2023/01/02 00:46:03;;;;;;;8.10;3.47;;;10.40;99.90;;;;;;5053686;28;20235;-50
2023/01/02 00:48:38;;;;;;;7.93;3.23;;;10.40;99.90;;;;;;5053652;28;20706;-53
2023/01/02 00:51:06;;;;;;;7.70;3.43;;;10.40;99.90;;;;;;5052566;28;20295;-52
2023/01/02 00:53:35;;;;;;;7.23;3.60;;;10.40;99.90;;;;;;5053304;28;20224;-52
2023/01/02 00:56:03;;;;;;;7.27;3.77;;;10.40;99.90;;;;;;5053104;28;20235;-52
2023/01/02 00:58:32;;;;;;;5.70;3.43;;;10.40;99.90;;;;;;5052897;28;20589;-51
2023/01/02 01:01:00;;;;;;;9.13;3.83;;;10.40;99.90;;;;;;5051982;28;20232;-51
2023/01/02 01:03:29;;;;;;;7.47;3.97;;;10.40;99.90;;;;;;5052876;28;20255;-48
2023/01/02 01:05:57;;;;;;;7.00;3.93;;;10.40;99.90;;;;;;5052748;28;20290;-50
2023/01/02 01:08:25;;;;;;;8.93;4.47;;;10.40;99.90;;;;;;5053166;28;20731;-51
2023/01/02 01:10:53;;;;;;;6.03;4.17;;;10.40;99.90;;;;;;5053020;28;20221;-52
2023/01/02 01:13:21;;;;;;;7.90;4.30;;;10.40;99.90;;;;;;5052669;28;20228;-52
2023/01/02 01:15:51;;;;;;;7.37;4.10;;;10.40;99.90;;;;;;5053155;28;20224;-51
2023/01/02 01:18:19;;;;;;;8.57;4.20;;;10.40;99.90;;;;;;5053173;28;20700;-52
2023/01/02 01:20:47;;;;;;;5.93;4.37;;;10.40;99.90;;;;;;5052548;28;20605;-49
2023/01/02 01:23:15;;;;;;;11.30;4.40;;;10.40;99.90;;;;;;5052972;28;20223;-51
2023/01/02 01:25:43;;;;;;;7.07;4.20;;;10.40;99.90;;;;;;5052513;28;20226;-51
2023/01/02 01:28:11;;;;;;;7.10;4.03;;;10.40;99.90;;;;;;5052288;28;20228;-52
2023/01/02 01:30:39;;;;;;;6.83;4.40;;;10.40;99.90;;;;;;5052539;28;20801;-50
2023/01/02 01:33:08;;;;;;;10.87;4.40;;;10.40;99.90;;;;;;5052657;28;20685;-52
2023/01/02 01:35:36;;;;;;;7.27;4.63;;;10.40;99.90;;;;;;5052272;28;20229;-52
2023/01/02 01:38:04;;;;;;;6.97;4.43;;;10.40;99.90;;;;;;5052565;28;20620;-53
2023/01/02 01:40:38;;;;;;;10.97;4.73;;;10.40;99.90;;;;;;5052725;28;20224;-52
2023/01/02 01:43:12;;;;;;;6.20;4.27;;;10.40;99.90;;;;;;5052894;28;20232;-53
2023/01/02 01:45:42;;;;;;;5.23;4.40;;;10.40;99.90;;;;;;5052463;28;20231;-51
2023/01/02 01:48:16;;;;;;;6.57;4.07;;;10.40;99.90;;;;;;5052601;28;20224;-52
2023/01/02 01:50:44;;;;;;;7.77;4.30;;;10.40;99.90;;;;;;5052490;28;20581;-51
2023/01/02 01:53:17;;;;;;;6.63;4.20;;;10.50;99.90;;;;;;5052359;28;20232;-53
2023/01/02 01:55:48;;;;;;;9.17;4.60;;;10.50;99.90;;;;;;5052045;28;20689;-52
2023/01/02 01:58:20;;;;;;;6.63;4.57;;;10.50;99.90;;;;;;5052063;28;20236;-50
2023/01/02 02:00:49;;;;;;;8.87;4.20;;;10.50;99.90;;;;;;5052021;28;20234;-50
2023/01/02 02:03:22;;;;;;;7.70;4.67;;;10.50;99.90;;;;;;5052220;28;20216;-50
2023/01/02 02:05:50;;;;;;;8.80;4.73;;;10.40;99.90;;;;;;5052001;28;20228;-52
2023/01/02 02:08:23;;;;;;;8.90;5.27;;;10.50;99.90;;;;;;5052418;28;20266;-51
2023/01/02 02:10:52;;;;;;;6.83;4.50;;;10.50;99.90;;;;;;5052077;28;20233;-52
2023/01/02 02:13:21;;;;;;;10.73;5.13;;;10.50;99.90;;;;;;5054786;28;20232;-51
2023/01/02 02:16:02;;;;;;;8.40;5.00;;;10.40;99.90;;;;;;5056043;28;20236;-51
2023/01/02 02:18:50;;;;;;;7.93;4.70;;;10.50;99.90;;;;;;5056264;28;20235;-51
2023/01/02 02:21:36;;;;;;;6.43;4.37;;;10.50;99.90;;;;;;5055630;28;20235;-52
2023/01/02 02:24:36;;;;;;;10.37;5.40;;;10.40;99.90;;;;;;5056239;28;20235;-51
2023/01/02 02:27:27;;;;;;;9.53;4.93;;;10.50;99.90;;;;;;5056172;28;20725;-51
2023/01/02 02:30:09;;;;;;;9.57;4.97;;;10.50;99.90;;;;;;5056254;28;20703;-52
2023/01/02 02:32:54;;;;;;;7.20;5.27;;;10.50;99.90;;;;;;5055758;28;20239;-51
2023/01/02 02:35:34;;;;;;;10.33;4.90;;;10.50;99.90;;;;;;5049706;28;20223;-52
2023/01/02 02:38:07;;;;;;;11.13;5.47;;;10.50;99.90;;;;;;5056247;28;20248;-51
2023/01/02 02:40:48;;;;;;;8.73;5.17;;;10.60;99.90;;;;;;5055718;28;20233;-52
2023/01/02 02:43:24;;;;;;;7.10;5.03;;;10.50;99.90;;;;;;5055503;28;20697;-51
2023/01/02 02:46:01;;;;;;;10.73;5.20;;;10.50;99.90;;;;;;5056396;28;20234;-52
2023/01/02 02:48:39;;;;;;;10.70;5.33;;;10.60;99.90;;;;;;5055845;28;20224;-51
2023/01/02 02:51:19;;;;;;;8.47;5.13;;;10.60;99.90;;;;;;5055857;28;20719;-51
2023/01/02 02:53:54;;;;;;;8.83;4.97;;;10.60;99.90;;;;;;5055411;28;20228;-51
2023/01/02 02:56:24;;;;;;;8.17;5.00;;;10.60;99.90;;;;;;5055166;28;20223;-52
2023/01/02 02:58:54;;;;;;;10.00;5.40;;;10.60;99.90;;;;;;5053212;28;20279;-51
2023/01/02 03:01:26;;;;;;;8.47;5.37;;;10.60;99.90;;;;;;5054914;28;20709;-52
2023/01/02 03:03:58;;;;;;;8.37;4.97;;;10.60;99.90;;;;;;5053915;28;20688;-51
2023/01/02 03:06:44;;;;;;;11.27;5.13;;;10.60;99.90;;;;;;5055185;28;20233;-51
2023/01/02 03:09:22;;;;;;;10.13;5.87;;;10.60;99.90;;;;;;5055230;28;20230;-51
2023/01/02 03:12:00;;;;;;;10.10;5.90;;;10.60;99.90;;;;;;5055501;28;20703;-51
2023/01/02 03:14:38;;;;;;;11.57;5.77;;;10.70;99.90;;;;;;5055082;28;20221;-53
2023/01/02 03:17:16;;;;;;;10.13;5.20;;;10.70;99.90;;;;;;5055054;28;20230;-53
2023/01/02 03:19:50;;;;;;;7.93;4.90;;;10.70;99.90;;;;;;5054715;28;20251;-50
2023/01/02 03:22:21;;;;;;;10.60;5.30;;;10.80;99.90;;;;;;5055212;28;20224;-51
2023/01/02 03:24:54;;;;;;;8.30;4.70;;;10.80;99.90;;;;;;5054028;28;20224;-52
2023/01/02 03:27:24;;;;;;;10.40;5.50;;;10.80;99.90;;;;;;5042215;28;20230;-51
2023/01/02 03:29:59;;;;;;;8.60;5.87;;;10.90;99.90;;;;;;5054890;28;20232;-52
2023/01/02 03:32:31;;;;;;;12.67;5.60;;;10.90;99.90;;;;;;5053851;28;20227;-52
2023/01/02 03:35:01;;;;;;;9.13;5.20;;;10.90;99.90;;;;;;5054550;28;20220;-52
2023/01/02 03:37:33;;;;;;;10.80;5.13;;;11.00;99.90;;;;;;5054680;28;20268;-51
2023/01/02 03:40:06;;;;;;;8.53;5.53;;;11.00;99.90;;;;;;5055050;28;20228;-52
2023/01/02 03:42:39;;;;;;;9.50;6.03;;;11.00;99.90;;;;;;5054323;28;20221;-52
2023/01/02 03:45:13;;;;;;;8.77;4.80;;;11.10;99.90;;;;;;5054166;28;20224;-50
2023/01/02 03:47:48;;;;;;;8.80;5.90;;;11.10;99.90;;;;;;5054858;28;20279;-52
2023/01/02 03:50:21;;;;;;;11.00;5.90;;;11.10;99.90;;;;;;5054348;28;20240;-48
2023/01/02 03:52:49;;;;;;;9.57;5.57;;;11.10;99.90;;;;;;5054250;28;20279;-51
2023/01/02 03:55:18;;;;;;;11.03;5.83;;;11.10;99.90;;;;;;5054154;28;20236;-51
2023/01/02 03:57:56;;;;;;;8.83;5.43;;;11.10;99.90;;;;;;5051407;28;20244;-52
2023/01/02 04:00:34;;;;;;;8.53;5.93;;;11.20;99.90;;;;;;5053982;28;20229;-51
2023/01/02 04:03:09;;;;;;;8.17;5.60;;;11.20;99.90;;;;;;5053664;28;20243;-51
2023/01/02 04:05:42;;;;;;;8.73;5.80;;;11.30;99.90;;;;;;5053856;28;20283;-51
2023/01/02 04:08:17;;;;;;;9.63;5.27;;;11.30;99.90;;;;;;5054091;28;20315;-51
2023/01/02 04:10:47;;;;;;;11.37;5.77;;;11.30;99.90;;;;;;5053654;28;20224;-52
2023/01/02 04:13:26;;;;;;;11.47;5.53;;;11.40;99.90;;;;;;5053775;28;20253;-50
2023/01/02 04:15:54;;;;;;;10.07;5.37;;;11.50;99.90;;;;;;5054290;28;20236;-51
2023/01/02 04:18:26;;;;;;;11.30;5.57;;;11.50;99.90;;;;;;5053955;28;20563;-49
2023/01/02 04:20:58;;;;;;;8.40;6.23;;;11.50;99.90;;;;;;5053340;28;20306;-50
2023/01/02 04:23:30;;;;;;;10.60;4.90;;;11.50;99.90;;;;;;5053511;28;20222;-52
2023/01/02 04:26:04;;;;;;;12.90;5.93;;;11.60;99.90;;;;;;5052923;28;20228;-53
2023/01/02 04:28:34;;;;;;;10.90;5.57;;;11.60;99.90;;;;;;5053423;28;20227;-51
2023/01/02 04:31:07;;;;;;;9.20;6.10;;;11.60;99.90;;;;;;5052879;28;20440;-52
2023/01/02 04:33:41;;;;;;;11.67;6.20;;;11.60;99.90;;;;;;5052981;28;20279;-51
2023/01/02 04:36:10;;;;;;;11.90;5.33;;;11.60;99.90;;;;;;5052457;28;20224;-52
2023/01/02 04:38:39;;;;;;;10.10;5.20;;;11.60;99.90;;;;;;5052981;28;20708;-52
2023/01/02 04:41:07;;;;;;;13.80;6.30;;;11.60;99.90;;;;;;5052995;28;20218;-52
2023/01/02 04:43:35;;;;;;;11.60;5.80;;;11.60;99.90;;;;;;5052587;28;20225;-51
2023/01/02 04:46:03;;;;;;;9.20;5.67;;;11.70;99.90;;;;;;5053120;28;20618;-52
2023/01/02 04:48:31;;;;;;;10.93;6.20;;;11.60;99.90;;;;;;5052630;28;20312;-50
2023/01/02 04:51:00;;;;;;;9.10;5.57;;;11.60;99.90;;;;;;5052724;28;20307;-52
2023/01/02 04:53:28;;;;;;;8.37;5.90;;;11.70;99.90;;;;;;5052709;28;20268;-52
2023/01/02 04:55:57;;;;;;;15.10;6.57;;;11.70;99.90;;;;;;5050040;28;20562;-51
2023/01/02 04:58:26;;;;;;;12.80;5.60;;;11.70;99.90;;;;;;5052594;28;20735;-51
2023/01/02 05:00:55;;;;;;;11.27;5.90;;;11.70;99.90;;;;;;5052318;28;20234;-51
2023/01/02 05:03:23;;;;;;;10.33;5.93;;;11.70;99.90;;;;;;5052713;28;20227;-53
2023/01/02 05:05:51;;;;;;;11.23;5.93;;;11.80;99.90;;;;;;5052941;28;20311;-51
2023/01/02 05:08:20;;;;;;;10.30;4.90;;;11.80;99.90;;;;;;5052734;28;20226;-51
2023/01/02 05:10:48;;;;;;;11.93;5.40;;;11.70;99.90;;;;;;5052189;28;20233;-52
2023/01/02 05:13:16;;;;;;;10.77;5.80;;;11.70;99.90;;;;;;5052545;28;20221;-49
2023/01/02 05:15:44;;;;;;;10.10;5.43;;;11.70;99.90;;;;;;5052134;28;20229;-51
2023/01/02 05:18:12;;;;;;;12.97;6.07;;;11.70;99.90;;;;;;5049467;28;20253;-51
2023/01/02 05:20:40;;;;;;;10.43;6.03;;;11.70;99.90;;;;;;5051947;28;20257;-52
2023/01/02 05:25:58;;;;;;;13.43;7.03;;;11.70;99.90;;;;;;5050219;28;20222;-52
2023/01/02 05:28:26;;;;;;;19.17;11.73;;;11.70;99.90;;;;;;5052200;28;20240;-52
2023/01/02 05:30:54;;;;;;;19.73;15.37;;;11.70;99.90;;;;;;5050124;28;20245;-51
2023/01/02 05:33:22;;;;;;;22.10;17.33;;;11.70;99.90;;;;;;5052254;28;20275;-50
2023/01/02 05:35:50;;;;;;;13.03;10.07;;;11.70;99.90;;;;;;5052197;28;20222;-53
2023/01/02 05:38:18;;;;;;;13.03;8.43;;;11.70;99.90;;;;;;5052360;28;20236;-52
2023/01/02 05:40:46;;;;;;;11.63;6.63;;;11.70;99.90;;;;;;5052043;28;20226;-51
2023/01/02 05:43:16;;;;;;;10.27;6.67;;;11.70;99.90;;;;;;5052047;28;20221;-50
2023/01/02 05:45:44;;;;;;;8.63;6.00;;;11.70;99.90;;;;;;5052233;28;20750;-52
2023/01/02 05:48:12;;;;;;;11.90;6.60;;;11.70;99.90;;;;;;5048855;28;20244;-52
2023/01/02 05:50:40;;;;;;;12.07;6.33;;;11.70;99.90;;;;;;5052269;28;20222;-51
2023/01/02 05:53:10;;;;;;;8.37;6.43;;;11.70;99.90;;;;;;5052394;28;20728;-51
2023/01/02 05:55:38;;;;;;;9.43;5.77;;;11.70;99.90;;;;;;5051952;28;20222;-51
2023/01/02 05:58:06;;;;;;;10.73;6.10;;;11.70;99.90;;;;;;5052087;28;20217;-49
2023/01/02 06:00:36;;;;;;;12.83;6.40;;;11.70;99.90;;;;;;5048751;28;20236;-52
2023/01/02 06:03:04;;;;;;;10.17;6.27;;;11.70;99.90;;;;;;5051600;28;20249;-51
2023/01/02 06:05:32;;;;;;;9.43;6.40;;;11.80;99.90;;;;;;5049140;28;20700;-51
2023/01/02 06:08:00;;;;;;;10.30;6.07;;;11.80;99.90;;;;;;5052296;28;20233;-53
2023/01/02 06:10:28;;;;;;;9.50;5.83;;;11.80;99.90;;;;;;5052161;28;20237;-51
2023/01/02 06:12:56;;;;;;;9.73;6.13;;;11.90;99.90;;;;;;5051822;28;20241;-52
2023/01/02 06:15:24;;;;;;;13.20;6.87;;;11.80;99.90;;;;;;5051614;28;20230;-52
2023/01/02 06:17:54;;;;;;;10.83;6.80;;;11.80;99.90;;;;;;5052423;28;20247;-50
2023/01/02 06:20:22;;;;;;;8.80;6.47;;;11.80;99.90;;;;;;5051662;28;20237;-49
2023/01/02 06:22:50;;;;;;;11.37;7.43;;;11.90;99.90;;;;;;5051957;28;20217;-50
2023/01/02 06:25:18;;;;;;;9.73;6.87;;;11.90;99.90;;;;;;5052452;28;20238;-53
2023/01/02 06:27:46;;;;;;;8.70;6.90;;;11.90;99.90;;;;;;5051748;28;20230;-53
2023/01/02 06:30:14;;;;;;;9.33;7.60;;;11.90;99.90;;;;;;5051564;28;20222;-52
2023/01/02 06:32:42;;;;;;;11.93;7.43;;;11.90;99.90;;;;;;5049424;28;20562;-51
2023/01/02 06:35:11;;;;;;;9.90;7.67;;;11.90;99.90;;;;;;5043324;28;20221;-53
2023/01/02 06:37:43;;;;;;;12.93;8.27;;;11.90;99.90;;;;;;5051833;28;20236;-51
2023/01/02 06:40:11;;;;;;;11.63;7.87;;;11.90;99.90;;;;;;5052043;28;20247;-52
2023/01/02 06:42:40;;;;;;;13.40;7.43;;;11.90;99.90;;;;;;5052027;28;20263;-50
2023/01/02 06:45:08;;;;;;;13.17;8.27;;;11.90;99.90;;;;;;5051905;28;20233;-49
2023/01/02 06:47:36;;;;;;;14.07;7.97;;;11.90;99.90;;;;;;5052143;28;20686;-51
2023/01/02 06:50:05;;;;;;;13.37;7.87;;;11.90;99.90;;;;;;5051847;28;20233;-53
2023/01/02 06:52:35;;;;;;;9.03;7.47;;;11.90;99.90;;;;;;5051808;28;20238;-51
2023/01/02 06:55:03;;;;;;;11.27;8.33;;;11.90;99.90;;;;;;5051929;28;20242;-51
2023/01/02 06:57:31;;;;;;;9.87;7.23;;;11.90;99.90;;;;;;5051383;28;20234;-51
2023/01/02 06:59:59;;;;;;;11.10;8.43;;;12.00;99.90;;;;;;5053628;28;20807;-52
2023/01/02 07:02:27;;;;;;;15.70;9.13;;;12.00;99.90;;;;;;5054363;28;20717;-52
2023/01/02 07:04:56;;;;;;;11.30;7.20;;;12.00;99.90;;;;;;5055009;28;20229;-52
2023/01/02 07:07:24;;;;;;;12.07;7.27;;;12.00;99.90;;;;;;5055371;28;20233;-51
2023/01/02 07:09:53;;;;;;;15.30;7.80;;;12.00;99.90;;;;;;5055469;28;20700;-51
2023/01/02 07:12:21;;;;;;;15.03;8.50;;;12.00;99.90;;;;;;5055296;28;20237;-49
2023/01/02 07:14:49;;;;;;;13.20;8.13;;;12.00;99.90;;;;;;5054772;28;20222;-52
2023/01/02 07:17:17;;;;;;;11.53;8.03;;;12.00;99.90;;;;;;5055214;28;20239;-49
2023/01/02 07:19:45;;;;;;;15.87;7.77;;;12.00;99.90;;;;;;5055117;28;20248;-51
2023/01/02 07:22:20;;;;;;;12.10;8.13;;;11.90;99.90;;;;;;5054686;28;20250;-51
2023/01/02 07:24:48;;;;;;;11.80;8.10;;;12.00;99.90;;;;;;5054702;28;20233;-52
2023/01/02 07:27:18;;;;;;;9.43;7.77;;;12.00;99.90;;;;;;5054781;28;20225;-50
2023/01/02 07:29:46;;;;;;;11.53;8.20;;;12.00;99.90;;;;;;5048215;28;20228;-51
2023/01/02 07:32:14;;;;;;;12.43;8.40;;;12.00;99.90;;;;;;5062051;28;20245;-51
2023/01/02 07:34:42;;;;;;;10.73;7.67;;;12.00;99.90;;;;;;5062323;28;20690;-52
2023/01/02 07:37:10;;;;;;;10.30;8.07;;;12.00;99.90;;;;;;5062224;28;20235;-53
2023/01/02 07:39:38;;;;;;;10.83;7.73;;;12.00;99.90;;;;;;5060828;28;20229;-52
2023/01/02 07:42:06;;;;;;;15.80;8.73;;;12.00;99.90;;;;;;5058050;28;20226;-50
2023/01/02 07:44:36;;;;;;;12.37;8.03;;;12.10;99.90;;;;;;5063472;28;20238;-50
2023/01/02 07:47:04;;;;;;;12.43;8.23;;;12.00;99.90;;;;;;5065472;28;20240;-51
2023/01/02 07:49:32;;;;;;;13.03;8.07;;;12.00;99.90;;;;;;5066211;28;20248;-50
2023/01/02 07:52:00;;;;;;;11.20;8.27;;;12.00;99.90;;;;;;5066725;28;20233;-50
2023/01/02 07:54:28;;;;;;;10.97;8.47;;;12.10;99.90;;;;;;5066703;28;20774;-51
2023/01/02 07:56:56;;;;;;;13.10;8.67;;;12.10;99.90;;;;;;5062130;28;20228;-50
2023/01/02 07:59:24;;;;;;;10.23;8.07;;;12.10;99.90;;;;;;5064266;28;20233;-50
2023/01/02 08:01:53;;;;;;;14.80;8.90;;;12.10;99.90;;;;;;5059536;28;20229;-51
2023/01/02 08:04:21;;;;;;;9.83;7.40;;;12.10;99.90;;;;;;5063159;28;20217;-51
2023/01/02 08:06:49;;;;;;;11.77;7.40;;;12.10;99.90;;;;;;5065565;28;20317;-51
2023/01/02 08:09:17;;;;;;;12.47;7.30;;;12.10;99.90;;;;;;5063358;28;20723;-51
2023/01/02 08:11:45;;;;;;;11.67;7.83;;;12.10;99.90;;;;;;5064430;28;20217;-51
2023/01/02 08:14:13;;;;;;;11.87;7.63;;;12.10;99.90;;;;;;5067528;28;20244;-51
2023/01/02 08:16:50;;;;;;;11.83;7.73;;;12.10;99.90;;;;;;5068161;28;20229;-52
2023/01/02 08:19:19;;;;;;;12.97;7.70;;;12.10;99.90;;;;;;5067991;28;20241;-50
2023/01/02 08:21:47;;;;;;;14.33;8.27;;;12.20;99.90;;;;;;5064454;28;20252;-51
2023/01/02 08:24:15;;;;;;;10.80;7.93;;;12.10;99.90;;;;;;5066693;28;20233;-53
2023/01/02 08:26:43;;;;;;;9.90;8.27;;;12.10;99.90;;;;;;5063865;28;20689;-51
2023/01/02 08:29:11;;;;;;;13.70;8.00;;;12.10;99.90;;;;;;5063995;28;20732;-54
2023/01/02 08:31:39;;;;;;;9.97;7.57;;;12.20;99.90;;;;;;5065149;28;20733;-50
2023/01/02 08:34:13;;;;;;;11.27;7.97;;;12.20;99.90;;;;;;5063084;28;20233;-50
2023/01/02 08:36:43;;;;;;;13.90;8.50;;;12.20;99.90;;;;;;5063954;28;20229;-52
2023/01/02 08:39:11;;;;;;;13.33;8.23;;;12.20;99.90;;;;;;5066010;28;20229;-51
2023/01/02 08:41:41;;;;;;;10.93;8.47;;;12.20;99.90;;;;;;5066343;28;20716;-51
2023/01/02 08:44:09;;;;;;;14.10;7.63;;;12.20;99.90;;;;;;5065364;28;20218;-52
2023/01/02 08:46:37;;;;;;;11.80;7.80;;;12.20;99.90;;;;;;5063443;28;20217;-50
2023/01/02 08:49:11;;;;;;;13.03;7.73;;;12.30;99.90;;;;;;5066226;28;20233;-51
2023/01/02 08:51:39;;;;;;;10.43;7.73;;;12.30;99.90;;;;;;5067147;28;20226;-51
2023/01/02 08:54:08;;;;;;;9.27;7.73;;;12.30;99.90;;;;;;5064527;28;20226;-51
2023/01/02 08:56:37;;;;;;;10.93;8.17;;;12.30;99.90;;;;;;5064318;28;20229;-51
2023/01/02 08:59:07;;;;;;;16.63;8.13;;;12.30;99.90;;;;;;5064859;28;20221;-51
2023/01/02 09:01:36;;;;;;;10.30;7.93;;;12.30;99.90;;;;;;5066150;28;20233;-52
2023/01/02 09:04:05;;;;;;;11.20;8.57;;;12.30;99.90;;;;;;5063444;28;20240;-53
2023/01/02 09:06:41;;;;;;;13.87;8.90;;;12.30;99.90;;;;;;5063462;28;20264;-49
2023/01/02 09:09:11;;;;;;;11.60;7.87;;;12.30;99.90;;;;;;5065785;28;20590;-51
2023/01/02 09:11:44;;;;;;;11.10;8.23;;;12.30;99.90;;;;;;5064137;28;20317;-51
2023/01/02 09:14:12;;;;;;;9.77;7.83;;;12.30;99.90;;;;;;5067481;28;20225;-52
2023/01/02 09:16:40;;;;;;;13.50;7.60;;;12.30;99.90;;;;;;5065611;28;20571;-52
2023/01/02 09:19:08;;;;;;;15.53;8.60;;;12.30;99.90;;;;;;5065263;28;20233;-52
2023/01/02 09:21:36;;;;;;;9.60;8.07;;;12.30;99.90;;;;;;5065541;28;20226;-51
2023/01/02 09:24:05;;;;;;;11.63;8.37;;;12.30;99.90;;;;;;5061867;28;20622;-53
2023/01/02 09:26:36;;;;;;;10.47;8.17;;;12.30;99.90;;;;;;5059029;28;20571;-52
2023/01/02 09:29:05;;;;;;;9.10;7.50;;;12.30;99.90;;;;;;5058341;28;20599;-54
2023/01/02 09:31:33;;;;;;;11.70;7.43;;;12.40;99.90;;;;;;5062643;28;20232;-50
2023/01/02 09:34:01;;;;;;;10.70;7.27;;;12.40;99.90;;;;;;5061710;28;20319;-51
2023/01/02 09:36:30;;;;;;;10.37;7.37;;;12.40;99.90;;;;;;5065738;28;20229;-52
2023/01/02 09:39:00;;;;;;;10.53;7.77;;;12.40;99.90;;;;;;5066016;28;20228;-50
2023/01/02 09:41:33;;;;;;;11.23;7.23;;;12.50;99.90;;;;;;5062930;28;20232;-51
2023/01/02 09:44:10;;;;;;;12.00;7.20;;;12.50;99.90;;;;;;5060891;28;20722;-51
2023/01/02 09:46:44;;;;;;;12.10;7.77;;;12.50;99.90;;;;;;5058065;28;20581;-53
2023/01/02 09:49:16;;;;;;;12.80;6.80;;;12.50;99.90;;;;;;5059876;28;20226;-51
2023/01/02 09:51:45;;;;;;;9.83;6.57;;;12.50;99.90;;;;;;5062114;28;20606;-50
2023/01/02 09:54:24;;;;;;;10.67;6.67;;;12.50;99.90;;;;;;5062847;28;20248;-53
2023/01/02 09:57:05;;;;;;;9.50;6.17;;;12.50;99.90;;;;;;5059756;28;20232;-51
2023/01/02 09:59:43;;;;;;;8.80;6.30;;;12.50;99.90;;;;;;5057808;28;20225;-50
2023/01/02 10:02:20;;;;;;;8.87;6.37;;;12.40;99.90;;;;;;5057440;28;20725;-51
2023/01/02 10:05:15;;;;;;;7.73;6.17;;;12.50;99.90;;;;;;5060300;28;20225;-50
2023/01/02 10:07:50;;;;;;;9.27;5.60;;;12.50;99.90;;;;;;5061791;28;20233;-51
2023/01/02 10:10:26;;;;;;;9.40;5.90;;;12.50;99.90;;;;;;5058042;28;20233;-52
2023/01/02 10:13:01;;;;;;;10.13;5.87;;;12.40;99.90;;;;;;5061382;28;20225;-52
2023/01/02 10:15:31;;;;;;;8.10;5.33;;;12.40;99.90;;;;;;5062094;28;20239;-52
2023/01/02 10:18:05;;;;;;;7.47;5.40;;;12.50;99.90;;;;;;5059607;28;20218;-51
2023/01/02 10:20:38;;;;;;;7.00;5.40;;;12.50;99.90;;;;;;5060386;28;20248;-52
2023/01/02 10:23:11;;;;;;;10.57;5.50;;;12.40;99.90;;;;;;5060786;28;20234;-54
2023/01/02 10:25:43;;;;;;;6.10;5.03;;;12.40;99.90;;;;;;5061651;28;20238;-51
2023/01/02 10:28:28;;;;;;;6.03;4.80;;;12.40;99.90;;;;;;5059893;28;20236;-52
2023/01/02 10:31:01;;;;;;;6.20;4.80;;;12.40;99.90;;;;;;5059801;28;20233;-48
2023/01/02 10:33:44;;;;;;;6.40;4.43;;;12.30;99.90;;;;;;5063189;28;20222;-49
2023/01/02 10:36:22;;;;;;;10.03;4.70;;;12.30;99.90;;;;;;5067767;28;20224;-51
2023/01/02 10:38:51;;;;;;;7.60;4.50;;;12.30;99.90;;;;;;5067396;28;20222;-53
2023/01/02 10:41:19;;;;;;;7.60;4.10;;;12.30;99.90;;;;;;5068997;28;20247;-49
2023/01/02 10:43:53;;;;;;;8.63;4.23;;;12.30;99.90;;;;;;5062037;28;20232;-50
2023/01/02 10:46:23;;;;;;;7.30;4.20;;;12.20;99.90;;;;;;5055407;28;20226;-51
2023/01/02 10:48:51;;;;;;;4.43;3.60;;;12.20;99.90;;;;;;5055511;28;20641;-52
2023/01/02 10:51:20;;;;;;;4.17;2.80;;;12.20;99.90;;;;;;5055088;28;20218;-51
2023/01/02 10:54:00;;;;;;;3.40;2.63;;;12.10;99.90;;;;;;5055536;28;20590;-50
2023/01/02 10:56:30;;;;;;;4.60;2.37;;;12.00;99.90;;;;;;5054957;28;20226;-52
2023/01/02 10:59:00;;;;;;;4.50;2.10;;;12.00;99.90;;;;;;5054222;28;20222;-52
2023/01/02 11:01:30;;;;;;;2.77;1.50;;;11.90;99.90;;;;;;5054374;28;20698;-52
2023/01/02 11:04:12;;;;;;;1.60;1.50;;;11.80;99.90;;;;;;5054611;28;20288;-51
2023/01/02 11:06:52;;;;;;;1.60;1.50;;;11.80;99.90;;;;;;5054083;28;20689;-50
2023/01/02 11:09:22;;;;;;;2.37;1.60;;;11.70;99.90;;;;;;5054414;28;20233;-52
2023/01/02 11:11:53;;;;;;;1.80;1.23;;;11.60;99.90;;;;;;5055156;28;20321;-53
2023/01/02 11:14:28;;;;;;;1.53;1.43;;;11.50;99.90;;;;;;5055502;28;20698;-51
2023/01/02 11:17:06;;;;;;;1.60;1.50;;;11.40;99.90;;;;;;5054687;28;20230;-51
2023/01/02 11:19:41;;;;;;;1.67;1.30;;;11.20;99.90;;;;;;5054794;28;20241;-51
2023/01/02 11:22:10;;;;;;;1.00;0.90;;;11.10;99.90;;;;;;5055495;28;20225;-49
2023/01/02 11:24:52;;;;;;;1.37;1.10;;;11.00;99.90;;;;;;5054870;28;20214;-51
2023/01/02 11:27:30;;;;;;;0.90;0.90;;;10.90;99.90;;;;;;5052892;28;20229;-51
2023/01/02 11:29:59;;;;;;;1.70;0.90;;;10.80;99.90;;;;;;5052659;28;20218;-51
2023/01/02 11:32:37;;;;;;;1.17;0.90;;;10.80;99.90;;;;;;5047543;28;20719;-48
2023/01/02 11:35:26;;;;;;;1.23;1.10;;;10.80;99.90;;;;;;5053678;28;20716;-50
2023/01/02 11:37:55;;;;;;;0.93;0.90;;;10.70;99.90;;;;;;5051446;28;20236;-51
2023/01/02 11:40:26;;;;;;;0.83;0.83;;;10.70;99.90;;;;;;5054618;28;20241;-51
2023/01/02 11:45:44;;;;;;;1.20;1.10;;;10.60;99.90;;;;;;5051665;28;20224;-51
2023/01/02 11:48:19;;;;;;;1.00;0.90;;;10.50;99.90;;;;;;5053555;28;20312;-52
2023/01/02 11:50:49;;;;;;;1.63;1.07;;;10.40;99.90;;;;;;5051764;28;20279;-53
2023/01/02 11:53:21;;;;;;;1.97;1.27;;;10.40;99.90;;;;;;5054216;28;20230;-51
2023/01/02 11:55:53;;;;;;;2.80;1.30;;;10.40;99.90;;;;;;5054562;28;20650;-50
2023/01/02 11:58:30;;;;;;;1.50;1.00;;;10.40;99.90;;;;;;5054306;28;20236;-52
2023/01/02 12:01:04;;;;;;;1.37;1.07;;;10.40;99.90;;;;;;5052530;28;20696;-50
2023/01/02 12:03:34;;;;;;;2.30;1.20;;;10.40;99.90;;;;;;5056343;28;20238;-52
2023/01/02 12:06:11;;;;;;;1.63;1.30;;;10.30;99.90;;;;;;5061508;28;20224;-52
2023/01/02 12:08:52;;;;;;;2.00;1.40;;;10.30;99.90;;;;;;5059740;28;20232;-53
2023/01/02 12:11:31;;;;;;;4.07;1.40;;;10.30;99.90;;;;;;5064161;28;20228;-52
2023/01/02 12:14:08;;;;;;;2.47;1.67;;;10.30;99.90;;;;;;5061337;28;20593;-50
2023/01/02 12:16:45;;;;;;;3.53;1.50;;;10.20;99.90;;;;;;5062523;28;20592;-52
2023/01/02 12:19:47;;;;;;;2.57;1.60;;;10.20;99.90;;;;;;5062796;28;20224;-51
2023/01/02 12:22:30;;;;;;;3.23;1.63;;;10.10;99.90;;;;;;5031925;28;20237;-52
2023/01/02 12:25:16;;;;;;;3.77;1.67;;;10.20;99.90;;;;;;5064897;28;20242;-53
2023/01/02 12:27:52;;;;;;;2.20;1.60;;;10.20;99.90;;;;;;5060964;28;20220;-50
2023/01/02 12:30:21;;;;;;;4.17;2.23;;;10.10;99.90;;;;;;5058473;28;20227;-49
2023/01/02 12:33:09;;;;;;;4.73;2.53;;;10.10;99.90;;;;;;5061248;28;20217;-50
2023/01/02 12:36:04;;;;;;;2.60;2.00;;;10.10;99.90;;;;;;5061071;28;20228;-51
2023/01/02 12:38:47;;;;;;;2.60;1.83;;;10.10;99.90;;;;;;5062569;28;20225;-51
2023/01/02 12:41:26;;;;;;;3.20;2.30;;;10.10;99.90;;;;;;5063914;28;20223;-50
2023/01/02 12:44:10;;;;;;;3.47;2.60;;;10.10;99.90;;;;;;5061687;28;20245;-52
2023/01/02 12:47:06;;;;;;;3.30;1.97;;;10.10;99.90;;;;;;5060413;28;20222;-53
2023/01/02 12:49:55;;;;;;;4.90;2.10;;;10.00;99.90;;;;;;5063395;28;20247;-53
2023/01/02 12:52:38;;;;;;;4.07;1.87;;;10.00;99.90;;;;;;5060731;28;20224;-49
2023/01/02 12:55:22;;;;;;;2.13;1.50;;;9.90;99.90;;;;;;5061008;28;20251;-53
2023/01/02 12:57:58;;;;;;;3.37;1.73;;;9.80;99.90;;;;;;5063967;28;20259;-51
2023/01/02 13:00:54;;;;;;;2.83;1.30;;;9.80;99.90;;;;;;5052432;28;20715;-51
2023/01/02 13:03:42;;;;;;;1.57;1.33;;;9.90;99.90;;;;;;5052045;28;20259;-51
2023/01/02 13:06:14;;;;;;;3.63;1.43;;;9.90;99.90;;;;;;5053019;28;20595;-51
2023/01/02 13:09:09;;;;;;;1.60;1.33;;;9.90;99.90;;;;;;5033441;28;20736;-52
2023/01/02 13:11:43;;;;;;;1.50;1.40;;;10.00;99.90;;;;;;5033155;28;20274;-51
2023/01/02 13:14:16;;;;;;;1.93;1.40;;;10.00;99.90;;;;;;5052236;28;20232;-50